DAL19 DGAA-KJFK
Flight info
| Callsign | DAL19 |
|---|---|
| Flight time | N/A |
| Altitude | 36000 |
| Route | ACC UL433 TUSEK DCT PIVKI UR979 ANITI UR976 LUMPO/M085F360 DCT BAMUX/M085F380 DCT 30N030W 37N040W/M085F400 42N050W DCT JEBBY DCT CARAC/N0487F400 DCT BRADD DCT PLYMM PARCH4 |
| Aircraft | A359/H-SDE2E3GHIJ1J3J4J5LM1ORWXY/LB1D1 |
Departure
| Time | 2026-04-29 18:18 |
|---|---|
| Airport | Kotoka International Airport (DGAA) |
Arrival
| Time | N/A |
|---|---|
| Airport | John F. Kennedy International Airport (KJFK) |
| Time | Latitude | Longitude | Altitude | Speed | Heading |
|---|---|---|---|---|---|
| 2026-04-29 17:55 | 5.60040 | -0.17235 | 217 ft | 0 kts | 292° |
| 2026-04-29 18:06 | 5.60035 | -0.17224 | 217 ft | 4 kts | 295° |
| 2026-04-29 18:06 | 5.60023 | -0.17200 | 221 ft | 4 kts | 302° |
| 2026-04-29 18:06 | 5.60007 | -0.17178 | 217 ft | 4 kts | 314° |
| 2026-04-29 18:06 | 5.59986 | -0.17161 | 219 ft | 4 kts | 341° |
| 2026-04-29 18:07 | 5.59968 | -0.17159 | 221 ft | 1 kts | 22° |
| 2026-04-29 18:07 | 5.59968 | -0.17157 | 220 ft | 0 kts | 22° |
| 2026-04-29 18:10 | 5.59989 | -0.17148 | 226 ft | 7 kts | 21° |
| 2026-04-29 18:10 | 5.60058 | -0.17122 | 217 ft | 14 kts | 21° |
| 2026-04-29 18:10 | 5.60159 | -0.17081 | 219 ft | 16 kts | 22° |
| 2026-04-29 18:11 | 5.60253 | -0.17041 | 221 ft | 14 kts | 22° |
| 2026-04-29 18:11 | 5.60336 | -0.17007 | 225 ft | 12 kts | 22° |
| 2026-04-29 18:11 | 5.60424 | -0.16971 | 223 ft | 14 kts | 22° |
| 2026-04-29 18:11 | 5.60510 | -0.16935 | 224 ft | 12 kts | 22° |
| 2026-04-29 18:12 | 5.60594 | -0.16900 | 228 ft | 16 kts | 22° |
| 2026-04-29 18:12 | 5.60715 | -0.16851 | 230 ft | 21 kts | 22° |
| 2026-04-29 18:12 | 5.60846 | -0.16796 | 229 ft | 20 kts | 22° |
| 2026-04-29 18:12 | 5.60973 | -0.16744 | 232 ft | 20 kts | 22° |
| 2026-04-29 18:13 | 5.61102 | -0.16690 | 229 ft | 21 kts | 22° |
| 2026-04-29 18:13 | 5.61236 | -0.16635 | 226 ft | 21 kts | 22° |
| 2026-04-29 18:13 | 5.61372 | -0.16579 | 227 ft | 22 kts | 22° |
| 2026-04-29 18:13 | 5.61516 | -0.16519 | 226 ft | 22 kts | 22° |
| 2026-04-29 18:14 | 5.61603 | -0.16471 | 221 ft | 8 kts | 47° |
| 2026-04-29 18:14 | 5.61618 | -0.16440 | 225 ft | 0 kts | 78° |
| 2026-04-29 18:15 | 5.61613 | -0.16400 | 223 ft | 13 kts | 107° |
| 2026-04-29 18:16 | 5.61617 | -0.16289 | 226 ft | 20 kts | 53° |
| 2026-04-29 18:16 | 5.61753 | -0.16216 | 215 ft | 25 kts | 20° |
| 2026-04-29 18:16 | 5.61874 | -0.16214 | 209 ft | 12 kts | 11° |
| 2026-04-29 18:16 | 5.61883 | -0.16174 | 211 ft | 4 kts | 153° |
| 2026-04-29 18:17 | 5.61834 | -0.16183 | 214 ft | 6 kts | 200° |
| 2026-04-29 18:17 | 5.61830 | -0.16184 | 214 ft | 0 kts | 201° |
| 2026-04-29 18:17 | 5.61823 | -0.16187 | 215 ft | 11 kts | 201° |
| 2026-04-29 18:17 | 5.61518 | -0.16314 | 228 ft | 84 kts | 203° |
| 2026-04-29 18:18 | 5.60758 | -0.16628 | 234 ft | 151 kts | 202° |
| 2026-04-29 18:18 | 5.59618 | -0.17097 | 307 ft | 200 kts | 205° |
| 2026-04-29 18:18 | 5.58305 | -0.17615 | 1056 ft | 207 kts | 201° |
| 2026-04-29 18:18 | 5.56899 | -0.18148 | 1812 ft | 218 kts | 202° |
| 2026-04-29 18:19 | 5.55532 | -0.18790 | 2441 ft | 218 kts | 210° |
| 2026-04-29 18:19 | 5.54323 | -0.19753 | 2816 ft | 228 kts | 227° |
| 2026-04-29 18:19 | 5.53409 | -0.21120 | 3038 ft | 245 kts | 243° |
| 2026-04-29 18:19 | 5.52699 | -0.22729 | 3287 ft | 260 kts | 246° |
| 2026-04-29 18:20 | 5.52001 | -0.24433 | 3701 ft | 266 kts | 246° |
| 2026-04-29 18:20 | 5.51288 | -0.26156 | 4202 ft | 269 kts | 246° |
| 2026-04-29 18:20 | 5.50568 | -0.27873 | 4688 ft | 273 kts | 246° |
| 2026-04-29 18:20 | 5.49849 | -0.29651 | 5120 ft | 278 kts | 250° |
| 2026-04-29 18:21 | 5.49519 | -0.31576 | 5595 ft | 283 kts | 266° |
| 2026-04-29 18:21 | 5.49473 | -0.33567 | 6052 ft | 288 kts | 268° |
| 2026-04-29 18:21 | 5.49462 | -0.35592 | 6492 ft | 292 kts | 268° |
| 2026-04-29 18:21 | 5.49448 | -0.37647 | 6941 ft | 297 kts | 268° |
| 2026-04-29 18:22 | 5.49427 | -0.39732 | 7412 ft | 301 kts | 268° |
| 2026-04-29 18:22 | 5.49403 | -0.41846 | 7878 ft | 305 kts | 268° |
| 2026-04-29 18:22 | 5.49376 | -0.43988 | 8359 ft | 310 kts | 269° |
| 2026-04-29 18:22 | 5.49348 | -0.46136 | 8861 ft | 314 kts | 269° |
| 2026-04-29 18:23 | 5.49318 | -0.48342 | 9339 ft | 319 kts | 269° |
| 2026-04-29 18:23 | 5.49288 | -0.50588 | 9828 ft | 323 kts | 269° |
| 2026-04-29 18:23 | 5.49257 | -0.52865 | 10174 ft | 333 kts | 269° |
| 2026-04-29 18:23 | 5.49224 | -0.55235 | 10401 ft | 346 kts | 269° |
| 2026-04-29 18:24 | 5.49190 | -0.57700 | 10621 ft | 359 kts | 269° |
| 2026-04-29 18:24 | 5.49155 | -0.60251 | 10844 ft | 372 kts | 269° |
| 2026-04-29 18:24 | 5.49118 | -0.62887 | 11056 ft | 383 kts | 269° |
| 2026-04-29 18:24 | 5.49119 | -0.65598 | 11252 ft | 394 kts | 272° |
| 2026-04-29 18:25 | 5.49325 | -0.68339 | 11459 ft | 404 kts | 276° |
| 2026-04-29 18:25 | 5.49605 | -0.71179 | 11655 ft | 414 kts | 276° |
| 2026-04-29 18:25 | 5.49896 | -0.74082 | 11859 ft | 422 kts | 276° |
| 2026-04-29 18:25 | 5.50187 | -0.77028 | 12187 ft | 426 kts | 276° |
| 2026-04-29 18:26 | 5.50478 | -0.79989 | 12570 ft | 427 kts | 276° |
| 2026-04-29 18:26 | 5.50768 | -0.82963 | 12945 ft | 429 kts | 276° |
| 2026-04-29 18:26 | 5.51059 | -0.85953 | 13315 ft | 432 kts | 276° |
| 2026-04-29 18:26 | 5.51352 | -0.88964 | 13680 ft | 434 kts | 276° |
| 2026-04-29 18:27 | 5.51642 | -0.91945 | 13991 ft | 436 kts | 276° |
| 2026-04-29 18:27 | 5.51936 | -0.94980 | 14294 ft | 438 kts | 276° |
| 2026-04-29 18:27 | 5.52231 | -0.98029 | 14613 ft | 440 kts | 276° |
| 2026-04-29 18:27 | 5.52528 | -1.01092 | 14909 ft | 442 kts | 276° |
| 2026-04-29 18:28 | 5.52826 | -1.04173 | 15214 ft | 444 kts | 276° |
| 2026-04-29 18:28 | 5.53124 | -1.07266 | 15505 ft | 447 kts | 276° |
| 2026-04-29 18:28 | 5.53425 | -1.10380 | 15803 ft | 449 kts | 276° |
| 2026-04-29 18:28 | 5.53746 | -1.13496 | 16095 ft | 450 kts | 278° |
| 2026-04-29 18:29 | 5.54382 | -1.16575 | 16400 ft | 451 kts | 287° |
| 2026-04-29 18:29 | 5.54980 | -1.18571 | 16613 ft | 451 kts | 289° |
| 2026-04-29 18:29 | 5.56372 | -1.22555 | 16993 ft | 453 kts | 291° |
| 2026-04-29 18:29 | 5.57476 | -1.25480 | 17267 ft | 455 kts | 292° |
| 2026-04-29 18:30 | 5.58613 | -1.28452 | 17543 ft | 457 kts | 292° |
| 2026-04-29 18:30 | 5.59749 | -1.31442 | 17821 ft | 459 kts | 292° |
| 2026-04-29 18:30 | 5.60875 | -1.34449 | 18097 ft | 461 kts | 291° |
| 2026-04-29 18:30 | 5.61993 | -1.37469 | 18334 ft | 463 kts | 291° |
| 2026-04-29 18:31 | 5.63106 | -1.40504 | 18603 ft | 464 kts | 291° |
| 2026-04-29 18:31 | 5.64217 | -1.43547 | 18852 ft | 465 kts | 291° |
| 2026-04-29 18:31 | 5.65327 | -1.46592 | 19105 ft | 465 kts | 291° |
| 2026-04-29 18:31 | 5.66425 | -1.49608 | 19352 ft | 466 kts | 291° |
| 2026-04-29 18:32 | 5.67539 | -1.52665 | 19595 ft | 467 kts | 291° |
| 2026-04-29 18:32 | 5.69766 | -1.58774 | 20203 ft | 466 kts | 291° |
| 2026-04-29 18:32 | 5.70880 | -1.61830 | 20438 ft | 467 kts | 291° |
| 2026-04-29 18:33 | 5.72000 | -1.64903 | 20632 ft | 469 kts | 291° |
| 2026-04-29 18:33 | 5.73125 | -1.67987 | 20858 ft | 471 kts | 291° |
| 2026-04-29 18:33 | 5.74251 | -1.71076 | 21115 ft | 472 kts | 291° |
| 2026-04-29 18:33 | 5.75365 | -1.74133 | 21355 ft | 473 kts | 291° |
| 2026-04-29 18:34 | 5.76496 | -1.77236 | 21599 ft | 474 kts | 291° |
| 2026-04-29 18:34 | 5.77260 | -1.79336 | 21757 ft | 475 kts | 291° |
| 2026-04-29 18:34 | 5.78765 | -1.83469 | 22089 ft | 477 kts | 291° |
| 2026-04-29 18:34 | 5.79906 | -1.86601 | 22341 ft | 478 kts | 291° |
| 2026-04-29 18:35 | 5.81049 | -1.89738 | 22576 ft | 479 kts | 291° |
| 2026-04-29 18:35 | 5.82195 | -1.92886 | 22808 ft | 481 kts | 291° |
| 2026-04-29 18:35 | 5.83344 | -1.96043 | 23032 ft | 483 kts | 291° |
| 2026-04-29 18:35 | 5.84482 | -1.99173 | 23280 ft | 484 kts | 291° |
| 2026-04-29 18:36 | 5.85638 | -2.02349 | 23513 ft | 485 kts | 291° |
| 2026-04-29 18:36 | 5.86798 | -2.05540 | 23708 ft | 487 kts | 291° |
| 2026-04-29 18:36 | 5.87961 | -2.08737 | 23902 ft | 488 kts | 291° |
| 2026-04-29 18:36 | 5.89127 | -2.11945 | 24102 ft | 490 kts | 291° |
| 2026-04-29 18:37 | 5.90296 | -2.15161 | 24298 ft | 491 kts | 291° |
| 2026-04-29 18:37 | 5.91469 | -2.18388 | 24499 ft | 492 kts | 291° |
| 2026-04-29 18:37 | 5.92645 | -2.21624 | 24724 ft | 494 kts | 291° |
| 2026-04-29 18:37 | 5.93824 | -2.24871 | 24945 ft | 495 kts | 291° |
| 2026-04-29 18:38 | 5.94989 | -2.28078 | 25164 ft | 497 kts | 291° |
| 2026-04-29 18:38 | 5.96174 | -2.31341 | 25365 ft | 499 kts | 291° |
| 2026-04-29 18:38 | 5.97366 | -2.34624 | 25582 ft | 501 kts | 291° |
| 2026-04-29 18:38 | 5.98560 | -2.37913 | 25821 ft | 502 kts | 291° |
| 2026-04-29 18:39 | 5.99758 | -2.41213 | 26060 ft | 504 kts | 291° |
| 2026-04-29 18:39 | 6.00959 | -2.44523 | 26306 ft | 505 kts | 291° |
| 2026-04-29 18:39 | 6.02163 | -2.47843 | 26554 ft | 507 kts | 290° |
| 2026-04-29 18:39 | 6.03372 | -2.51176 | 26801 ft | 509 kts | 290° |
| 2026-04-29 18:40 | 6.04584 | -2.54520 | 27065 ft | 510 kts | 290° |
| 2026-04-29 18:40 | 6.05783 | -2.57829 | 27321 ft | 512 kts | 290° |
| 2026-04-29 18:40 | 6.07005 | -2.61198 | 27565 ft | 514 kts | 290° |
| 2026-04-29 18:40 | 6.08227 | -2.64571 | 27813 ft | 516 kts | 290° |
| 2026-04-29 18:41 | 6.11938 | -2.74816 | 28411 ft | 524 kts | 290° |
| 2026-04-29 18:41 | 6.13184 | -2.78257 | 28640 ft | 525 kts | 290° |
| 2026-04-29 18:42 | 6.14436 | -2.81717 | 28851 ft | 527 kts | 290° |
| 2026-04-29 18:42 | 6.15673 | -2.85133 | 29064 ft | 529 kts | 290° |
| 2026-04-29 18:42 | 6.16930 | -2.88607 | 29334 ft | 528 kts | 290° |
| 2026-04-29 18:42 | 6.18184 | -2.92074 | 29649 ft | 528 kts | 290° |
| 2026-04-29 18:43 | 6.19437 | -2.95539 | 29941 ft | 527 kts | 290° |
| 2026-04-29 18:43 | 6.20688 | -2.98999 | 30191 ft | 527 kts | 290° |
| 2026-04-29 18:43 | 6.21938 | -3.02456 | 30476 ft | 525 kts | 290° |
| 2026-04-29 18:43 | 6.23181 | -3.05897 | 30772 ft | 524 kts | 290° |
| 2026-04-29 18:44 | 6.24424 | -3.09338 | 30990 ft | 523 kts | 290° |
| 2026-04-29 18:44 | 6.25648 | -3.12728 | 31240 ft | 522 kts | 290° |
| 2026-04-29 18:44 | 6.26876 | -3.16157 | 31517 ft | 521 kts | 289° |
| 2026-04-29 18:44 | 6.27819 | -3.19668 | 31775 ft | 520 kts | 282° |
| 2026-04-29 18:45 | 6.28538 | -3.23220 | 32029 ft | 518 kts | 281° |
| 2026-04-29 18:45 | 6.29199 | -3.26777 | 32279 ft | 517 kts | 280° |
| 2026-04-29 18:45 | 6.29827 | -3.30327 | 32533 ft | 516 kts | 280° |
| 2026-04-29 18:45 | 6.30440 | -3.33870 | 32777 ft | 514 kts | 280° |
| 2026-04-29 18:46 | 6.31051 | -3.37411 | 33013 ft | 513 kts | 280° |
| 2026-04-29 18:46 | 6.31653 | -3.40888 | 33227 ft | 512 kts | 280° |
| 2026-04-29 18:46 | 6.32265 | -3.44410 | 33459 ft | 511 kts | 281° |
| 2026-04-29 18:46 | 6.32878 | -3.47912 | 33806 ft | 507 kts | 281° |
| 2026-04-29 18:47 | 6.33489 | -3.51394 | 33997 ft | 506 kts | 281° |
| 2026-04-29 18:47 | 6.34101 | -3.54876 | 34128 ft | 506 kts | 281° |
| 2026-04-29 18:47 | 6.34713 | -3.58359 | 34277 ft | 506 kts | 281° |
| 2026-04-29 18:47 | 6.35324 | -3.61838 | 34429 ft | 505 kts | 281° |
| 2026-04-29 18:48 | 6.35933 | -3.65308 | 34581 ft | 504 kts | 280° |
| 2026-04-29 18:48 | 6.36534 | -3.68731 | 34726 ft | 504 kts | 280° |
| 2026-04-29 18:48 | 6.37142 | -3.72197 | 34872 ft | 503 kts | 280° |
| 2026-04-29 18:48 | 6.37749 | -3.75658 | 35020 ft | 502 kts | 280° |
| 2026-04-29 18:49 | 6.38354 | -3.79114 | 35165 ft | 502 kts | 280° |
| 2026-04-29 18:49 | 6.38958 | -3.82562 | 35308 ft | 501 kts | 280° |
| 2026-04-29 18:49 | 6.39561 | -3.86002 | 35517 ft | 498 kts | 280° |
| 2026-04-29 18:49 | 6.40160 | -3.89427 | 35671 ft | 497 kts | 280° |
| 2026-04-29 18:50 | 6.41358 | -3.96276 | 35840 ft | 498 kts | 280° |
| 2026-04-29 18:50 | 6.42551 | -4.03102 | 35902 ft | 501 kts | 280° |
| 2026-04-29 18:51 | 6.43759 | -4.10026 | 35901 ft | 504 kts | 280° |
| 2026-04-29 18:51 | 6.44970 | -4.16962 | 35898 ft | 504 kts | 280° |
| 2026-04-29 18:52 | 6.46182 | -4.23918 | 35895 ft | 506 kts | 280° |
| 2026-04-29 18:52 | 6.47396 | -4.30892 | 35894 ft | 507 kts | 280° |
| 2026-04-29 18:53 | 6.48603 | -4.37827 | 35895 ft | 507 kts | 280° |
| 2026-04-29 18:53 | 6.49815 | -4.44798 | 35895 ft | 506 kts | 280° |
| 2026-04-29 18:54 | 6.51029 | -4.51780 | 35895 ft | 507 kts | 280° |
| 2026-04-29 18:54 | 6.52239 | -4.58753 | 35896 ft | 506 kts | 280° |
| 2026-04-29 18:55 | 6.53438 | -4.65669 | 35894 ft | 505 kts | 280° |
| 2026-04-29 18:55 | 6.54644 | -4.72627 | 35898 ft | 505 kts | 280° |
| 2026-04-29 18:56 | 6.55848 | -4.79577 | 35895 ft | 505 kts | 280° |
| 2026-04-29 18:56 | 6.57052 | -4.86537 | 35894 ft | 505 kts | 280° |
| 2026-04-29 18:57 | 6.58246 | -4.93446 | 35899 ft | 505 kts | 280° |
| 2026-04-29 18:57 | 6.59447 | -5.00401 | 35901 ft | 506 kts | 280° |
| 2026-04-29 18:58 | 6.60653 | -5.07385 | 35906 ft | 507 kts | 280° |
| 2026-04-29 18:58 | 6.61855 | -5.14363 | 35905 ft | 507 kts | 280° |
| 2026-04-29 18:59 | 6.63051 | -5.21305 | 35909 ft | 507 kts | 280° |
| 2026-04-29 18:59 | 6.64252 | -5.28283 | 35909 ft | 506 kts | 280° |
| 2026-04-29 19:00 | 6.65454 | -5.35270 | 35921 ft | 508 kts | 280° |
| 2026-04-29 19:00 | 6.66655 | -5.42258 | 35916 ft | 506 kts | 280° |
| 2026-04-29 19:01 | 6.67845 | -5.49188 | 35920 ft | 506 kts | 281° |
| 2026-04-29 19:01 | 6.69041 | -5.56162 | 35920 ft | 506 kts | 280° |
| 2026-04-29 19:02 | 6.70034 | -5.61957 | 35923 ft | 506 kts | 280° |
| 2026-04-29 19:02 | 6.71430 | -5.70108 | 35925 ft | 506 kts | 280° |
| 2026-04-29 19:03 | 6.72623 | -5.77081 | 35924 ft | 506 kts | 280° |
| 2026-04-29 19:03 | 6.73808 | -5.84008 | 35929 ft | 506 kts | 280° |
| 2026-04-29 19:04 | 6.75061 | -5.90971 | 35930 ft | 505 kts | 285° |
| 2026-04-29 19:04 | 6.77673 | -5.97481 | 35935 ft | 502 kts | 303° |
| 2026-04-29 19:05 | 6.81510 | -6.03353 | 35933 ft | 502 kts | 305° |
| 2026-04-29 19:05 | 6.85510 | -6.09060 | 35935 ft | 502 kts | 306° |
| 2026-04-29 19:06 | 6.89549 | -6.14803 | 35936 ft | 503 kts | 306° |
| 2026-04-29 19:07 | 6.95579 | -6.23468 | 35934 ft | 504 kts | 306° |
| 2026-04-29 19:07 | 6.99583 | -6.29248 | 35939 ft | 504 kts | 306° |
| 2026-04-29 19:08 | 7.03564 | -6.34995 | 35940 ft | 504 kts | 306° |
| 2026-04-29 19:08 | 7.07569 | -6.40780 | 35942 ft | 504 kts | 306° |
| 2026-04-29 19:09 | 7.11578 | -6.46569 | 35937 ft | 504 kts | 306° |
| 2026-04-29 19:09 | 7.15592 | -6.52364 | 35941 ft | 506 kts | 305° |
| 2026-04-29 19:10 | 7.19585 | -6.58137 | 35944 ft | 506 kts | 305° |
| 2026-04-29 19:10 | 7.23607 | -6.63953 | 35938 ft | 506 kts | 305° |
| 2026-04-29 19:11 | 7.27628 | -6.69768 | 35948 ft | 506 kts | 305° |
| 2026-04-29 19:11 | 7.31647 | -6.75584 | 35946 ft | 506 kts | 305° |
| 2026-04-29 19:12 | 7.35638 | -6.81361 | 35953 ft | 506 kts | 305° |
| 2026-04-29 19:12 | 7.39654 | -6.87176 | 35954 ft | 506 kts | 305° |
| 2026-04-29 19:13 | 7.43683 | -6.93011 | 35947 ft | 508 kts | 305° |
| 2026-04-29 19:13 | 7.47719 | -6.98858 | 35948 ft | 508 kts | 305° |
| 2026-04-29 19:14 | 7.51750 | -7.04701 | 35949 ft | 508 kts | 305° |
| 2026-04-29 19:14 | 7.55755 | -7.10508 | 35957 ft | 508 kts | 305° |
| 2026-04-29 19:15 | 7.59787 | -7.16358 | 35963 ft | 508 kts | 305° |
| 2026-04-29 19:15 | 7.63819 | -7.22208 | 35970 ft | 508 kts | 305° |
| 2026-04-29 19:16 | 7.67855 | -7.28066 | 35960 ft | 509 kts | 305° |
| 2026-04-29 19:16 | 7.71870 | -7.33898 | 35969 ft | 510 kts | 305° |
| 2026-04-29 19:17 | 7.75913 | -7.39771 | 35967 ft | 510 kts | 304° |
| 2026-04-29 19:17 | 7.79954 | -7.45645 | 35971 ft | 510 kts | 304° |
| 2026-04-29 19:18 | 7.83995 | -7.51521 | 35967 ft | 510 kts | 304° |
| 2026-04-29 19:18 | 7.88009 | -7.57359 | 35969 ft | 510 kts | 304° |
| 2026-04-29 19:19 | 7.92046 | -7.63232 | 35969 ft | 508 kts | 304° |
| 2026-04-29 19:19 | 7.96063 | -7.69080 | 35968 ft | 506 kts | 304° |
| 2026-04-29 19:20 | 8.00074 | -7.74921 | 35966 ft | 506 kts | 304° |
| 2026-04-29 19:20 | 8.04079 | -7.80757 | 35966 ft | 506 kts | 304° |
| 2026-04-29 19:21 | 8.08057 | -7.86554 | 35964 ft | 506 kts | 304° |
| 2026-04-29 19:21 | 8.12063 | -7.92395 | 35963 ft | 506 kts | 304° |
| 2026-04-29 19:22 | 8.16069 | -7.98238 | 35966 ft | 506 kts | 304° |
| 2026-04-29 19:22 | 8.20073 | -8.04080 | 35966 ft | 506 kts | 304° |
| 2026-04-29 19:23 | 8.24049 | -8.09885 | 35968 ft | 506 kts | 304° |
| 2026-04-29 19:23 | 8.28053 | -8.15732 | 35966 ft | 506 kts | 304° |
| 2026-04-29 19:24 | 8.32056 | -8.21581 | 35969 ft | 506 kts | 304° |
| 2026-04-29 19:24 | 8.36057 | -8.27429 | 35968 ft | 506 kts | 304° |
| 2026-04-29 19:25 | 8.40036 | -8.33241 | 35968 ft | 506 kts | 304° |
| 2026-04-29 19:25 | 8.44052 | -8.39095 | 35973 ft | 507 kts | 304° |
| 2026-04-29 19:26 | 8.48071 | -8.44958 | 35973 ft | 508 kts | 304° |
| 2026-04-29 19:26 | 8.52088 | -8.50823 | 35974 ft | 508 kts | 304° |
| 2026-04-29 19:27 | 8.56107 | -8.56694 | 35972 ft | 508 kts | 304° |
| 2026-04-29 19:27 | 8.60098 | -8.62526 | 35972 ft | 508 kts | 304° |
| 2026-04-29 19:28 | 8.64118 | -8.68403 | 35971 ft | 508 kts | 304° |
| 2026-04-29 19:28 | 8.68136 | -8.74280 | 35974 ft | 509 kts | 304° |
| 2026-04-29 19:29 | 8.72160 | -8.80168 | 35962 ft | 509 kts | 304° |
| 2026-04-29 19:29 | 8.76157 | -8.86019 | 35960 ft | 509 kts | 304° |
| 2026-04-29 19:30 | 8.80183 | -8.91915 | 35963 ft | 509 kts | 304° |
| 2026-04-29 19:30 | 8.84205 | -8.97809 | 35951 ft | 509 kts | 304° |
| 2026-04-29 19:31 | 8.88204 | -9.03670 | 35954 ft | 509 kts | 304° |
| 2026-04-29 19:31 | 8.92223 | -9.09565 | 35956 ft | 509 kts | 304° |
| 2026-04-29 19:32 | 8.96255 | -9.15481 | 35954 ft | 512 kts | 304° |
| 2026-04-29 19:32 | 9.00293 | -9.21407 | 35946 ft | 511 kts | 303° |
| 2026-04-29 19:33 | 9.04320 | -9.27320 | 35943 ft | 510 kts | 303° |
| 2026-04-29 19:33 | 9.08381 | -9.33150 | 35945 ft | 510 kts | 305° |
| 2026-04-29 19:34 | 9.12592 | -9.38931 | 35928 ft | 511 kts | 306° |
| 2026-04-29 19:34 | 9.16806 | -9.44715 | 35929 ft | 511 kts | 305° |
| 2026-04-29 19:35 | 9.20997 | -9.50515 | 35927 ft | 510 kts | 306° |
| 2026-04-29 19:35 | 9.25145 | -9.56276 | 35919 ft | 510 kts | 306° |
| 2026-04-29 19:36 | 9.29314 | -9.62073 | 35905 ft | 509 kts | 306° |
| 2026-04-29 19:36 | 9.33485 | -9.67874 | 35906 ft | 509 kts | 305° |
| 2026-04-29 19:37 | 9.37642 | -9.73657 | 35899 ft | 507 kts | 305° |
| 2026-04-29 19:37 | 9.41764 | -9.79395 | 35889 ft | 507 kts | 305° |
| 2026-04-29 19:38 | 9.45909 | -9.85166 | 35887 ft | 505 kts | 305° |
| 2026-04-29 19:38 | 9.50036 | -9.90915 | 35886 ft | 505 kts | 305° |
| 2026-04-29 19:39 | 9.54163 | -9.96669 | 35887 ft | 505 kts | 305° |
| 2026-04-29 19:39 | 9.58287 | -10.02417 | 35876 ft | 503 kts | 305° |
| 2026-04-29 19:40 | 9.62370 | -10.08114 | 35876 ft | 503 kts | 305° |
| 2026-04-29 19:40 | 9.66470 | -10.13862 | 35877 ft | 504 kts | 305° |
| 2026-04-29 19:41 | 9.70570 | -10.19615 | 35865 ft | 501 kts | 305° |
| 2026-04-29 19:41 | 9.74643 | -10.25329 | 35862 ft | 499 kts | 305° |
| 2026-04-29 19:42 | 9.78680 | -10.30995 | 35861 ft | 499 kts | 305° |
| 2026-04-29 19:42 | 9.82742 | -10.36698 | 35857 ft | 499 kts | 305° |
| 2026-04-29 19:43 | 9.86803 | -10.42402 | 35856 ft | 499 kts | 305° |
| 2026-04-29 19:43 | 9.90178 | -10.47145 | 35855 ft | 499 kts | 305° |
| 2026-04-29 19:44 | 9.94894 | -10.53776 | 35856 ft | 499 kts | 305° |
| 2026-04-29 19:44 | 9.98953 | -10.59484 | 35849 ft | 499 kts | 305° |
| 2026-04-29 19:45 | 10.03019 | -10.65206 | 35847 ft | 500 kts | 305° |
| 2026-04-29 19:45 | 10.06398 | -10.69965 | 35849 ft | 499 kts | 304° |
| 2026-04-29 19:46 | 10.11057 | -10.76641 | 35848 ft | 498 kts | 302° |
| 2026-04-29 19:46 | 10.14672 | -10.82635 | 35850 ft | 498 kts | 300° |
| 2026-04-29 19:47 | 10.17606 | -10.87662 | 35859 ft | 498 kts | 300° |
| 2026-04-29 19:47 | 10.21182 | -10.93681 | 35855 ft | 498 kts | 300° |
| 2026-04-29 19:48 | 10.25511 | -11.00570 | 35859 ft | 499 kts | 305° |
| 2026-04-29 19:48 | 10.28999 | -11.05291 | 35863 ft | 499 kts | 306° |
| 2026-04-29 19:49 | 10.33207 | -11.10837 | 35862 ft | 499 kts | 306° |
| 2026-04-29 19:49 | 10.37458 | -11.16416 | 35865 ft | 499 kts | 307° |
| 2026-04-29 19:50 | 10.42384 | -11.22900 | 35871 ft | 499 kts | 306° |
| 2026-04-29 19:50 | 10.45927 | -11.27575 | 35870 ft | 498 kts | 306° |
| 2026-04-29 19:51 | 10.50123 | -11.33117 | 35867 ft | 498 kts | 306° |
| 2026-04-29 19:51 | 10.54354 | -11.38707 | 35872 ft | 500 kts | 306° |
| 2026-04-29 19:52 | 10.58594 | -11.44311 | 35876 ft | 500 kts | 306° |
| 2026-04-29 19:52 | 10.62834 | -11.49917 | 35877 ft | 500 kts | 306° |
| 2026-04-29 19:53 | 10.67042 | -11.55485 | 35879 ft | 500 kts | 306° |
| 2026-04-29 19:53 | 10.71178 | -11.61165 | 35881 ft | 500 kts | 304° |
| 2026-04-29 19:54 | 10.77271 | -11.69763 | 35881 ft | 500 kts | 304° |
| 2026-04-29 19:54 | 10.81348 | -11.75485 | 35885 ft | 499 kts | 304° |
| 2026-04-29 19:55 | 10.85406 | -11.81159 | 35887 ft | 500 kts | 304° |
| 2026-04-29 19:55 | 10.89496 | -11.86876 | 35887 ft | 500 kts | 304° |
| 2026-04-29 19:56 | 10.93583 | -11.92592 | 35892 ft | 499 kts | 304° |
| 2026-04-29 19:56 | 10.97668 | -11.98311 | 35894 ft | 499 kts | 304° |
| 2026-04-29 19:57 | 11.01723 | -12.03992 | 35890 ft | 499 kts | 304° |
| 2026-04-29 19:57 | 11.05813 | -12.09724 | 35904 ft | 501 kts | 304° |
| 2026-04-29 19:58 | 11.09910 | -12.15468 | 35906 ft | 501 kts | 304° |
| 2026-04-29 19:58 | 11.13996 | -12.21200 | 35912 ft | 500 kts | 304° |
| 2026-04-29 19:59 | 11.18052 | -12.26894 | 35913 ft | 500 kts | 304° |
| 2026-04-29 19:59 | 11.22136 | -12.32630 | 35916 ft | 500 kts | 304° |
| 2026-04-29 20:00 | 11.26215 | -12.38371 | 35924 ft | 500 kts | 304° |
| 2026-04-29 20:00 | 11.30199 | -12.44177 | 35922 ft | 500 kts | 303° |
| 2026-04-29 20:01 | 11.34147 | -12.50017 | 35921 ft | 500 kts | 303° |
| 2026-04-29 20:01 | 11.38079 | -12.55808 | 35922 ft | 501 kts | 303° |
| 2026-04-29 20:02 | 11.42051 | -12.61634 | 35924 ft | 500 kts | 303° |
| 2026-04-29 20:02 | 11.45343 | -12.66463 | 35922 ft | 499 kts | 303° |
| 2026-04-29 20:03 | 11.49971 | -12.73253 | 35911 ft | 498 kts | 303° |
| 2026-04-29 20:03 | 11.53897 | -12.79017 | 35898 ft | 499 kts | 303° |
| 2026-04-29 20:04 | 11.57854 | -12.84834 | 35898 ft | 499 kts | 303° |
| 2026-04-29 20:04 | 11.61805 | -12.90646 | 35887 ft | 499 kts | 303° |
| 2026-04-29 20:05 | 11.65756 | -12.96461 | 35875 ft | 499 kts | 303° |
| 2026-04-29 20:05 | 11.69679 | -13.02236 | 35876 ft | 499 kts | 303° |
| 2026-04-29 20:06 | 11.73633 | -13.08059 | 35872 ft | 499 kts | 303° |
| 2026-04-29 20:06 | 11.77578 | -13.13873 | 35858 ft | 498 kts | 303° |
| 2026-04-29 20:07 | 11.81681 | -13.19570 | 35860 ft | 498 kts | 307° |
| 2026-04-29 20:07 | 11.86089 | -13.24968 | 35856 ft | 498 kts | 308° |
| 2026-04-29 20:08 | 11.89816 | -13.29511 | 35851 ft | 498 kts | 308° |
| 2026-04-29 20:08 | 11.94925 | -13.35873 | 35851 ft | 498 kts | 307° |
| 2026-04-29 20:09 | 11.99287 | -13.41373 | 35854 ft | 498 kts | 307° |
| 2026-04-29 20:09 | 12.03613 | -13.46840 | 35845 ft | 498 kts | 307° |
| 2026-04-29 20:10 | 12.07971 | -13.52346 | 35853 ft | 498 kts | 307° |
| 2026-04-29 20:10 | 12.12315 | -13.57834 | 35848 ft | 496 kts | 307° |
| 2026-04-29 20:11 | 12.16647 | -13.63309 | 35843 ft | 495 kts | 307° |
| 2026-04-29 20:11 | 12.20946 | -13.68746 | 35846 ft | 495 kts | 307° |
| 2026-04-29 20:12 | 12.25276 | -13.74226 | 35845 ft | 495 kts | 307° |
| 2026-04-29 20:12 | 12.29498 | -13.79782 | 35843 ft | 494 kts | 303° |
| 2026-04-29 20:13 | 12.33369 | -13.85582 | 35845 ft | 494 kts | 302° |
| 2026-04-29 20:13 | 12.37176 | -13.91362 | 35845 ft | 493 kts | 302° |
| 2026-04-29 20:14 | 12.41055 | -13.97136 | 35849 ft | 492 kts | 303° |
| 2026-04-29 20:14 | 12.44947 | -14.02869 | 35842 ft | 489 kts | 303° |
| 2026-04-29 20:15 | 12.48831 | -14.08580 | 35843 ft | 489 kts | 303° |
| 2026-04-29 20:15 | 12.52682 | -14.14250 | 35842 ft | 489 kts | 303° |
| 2026-04-29 20:16 | 12.56559 | -14.19965 | 35843 ft | 489 kts | 303° |
| 2026-04-29 20:16 | 12.60431 | -14.25677 | 35843 ft | 488 kts | 303° |
| 2026-04-29 20:17 | 12.64301 | -14.31389 | 35843 ft | 488 kts | 303° |
| 2026-04-29 20:17 | 12.68140 | -14.37059 | 35842 ft | 488 kts | 303° |
| 2026-04-29 20:18 | 12.72006 | -14.42773 | 35842 ft | 488 kts | 303° |
| 2026-04-29 20:18 | 12.75865 | -14.48483 | 35842 ft | 486 kts | 302° |
| 2026-04-29 20:19 | 12.79710 | -14.54177 | 35845 ft | 486 kts | 302° |
| 2026-04-29 20:19 | 12.83529 | -14.59827 | 35845 ft | 486 kts | 302° |
| 2026-04-29 20:20 | 12.87372 | -14.65520 | 35837 ft | 486 kts | 302° |
| 2026-04-29 20:20 | 12.91212 | -14.71212 | 35827 ft | 486 kts | 302° |
| 2026-04-29 20:21 | 12.95055 | -14.76914 | 35821 ft | 486 kts | 302° |
| 2026-04-29 20:21 | 12.98869 | -14.82575 | 35815 ft | 486 kts | 302° |
| 2026-04-29 20:22 | 13.02704 | -14.88272 | 35812 ft | 486 kts | 302° |
| 2026-04-29 20:22 | 13.06540 | -14.93973 | 35824 ft | 486 kts | 302° |
| 2026-04-29 20:23 | 13.10372 | -14.99671 | 35825 ft | 484 kts | 302° |
| 2026-04-29 20:23 | 13.14195 | -15.05361 | 35853 ft | 484 kts | 302° |
| 2026-04-29 20:24 | 13.17990 | -15.11013 | 35853 ft | 484 kts | 302° |
| 2026-04-29 20:24 | 13.21813 | -15.16703 | 35851 ft | 484 kts | 302° |
| 2026-04-29 20:25 | 13.25630 | -15.22399 | 35857 ft | 484 kts | 302° |
| 2026-04-29 20:25 | 13.29418 | -15.28056 | 35855 ft | 484 kts | 302° |
| 2026-04-29 20:26 | 13.33232 | -15.33756 | 35854 ft | 484 kts | 302° |
| 2026-04-29 20:26 | 13.37047 | -15.39457 | 35856 ft | 484 kts | 302° |
| 2026-04-29 20:27 | 13.40216 | -15.44195 | 35858 ft | 483 kts | 301° |
| 2026-04-29 20:27 | 13.44656 | -15.50839 | 35862 ft | 482 kts | 301° |
| 2026-04-29 20:28 | 13.48426 | -15.56485 | 35867 ft | 482 kts | 301° |
| 2026-04-29 20:28 | 13.52220 | -15.62171 | 35867 ft | 482 kts | 301° |
| 2026-04-29 20:29 | 13.56011 | -15.67856 | 35873 ft | 482 kts | 301° |
| 2026-04-29 20:29 | 13.59803 | -15.73545 | 35872 ft | 482 kts | 301° |
| 2026-04-29 20:30 | 13.63569 | -15.79199 | 35880 ft | 482 kts | 301° |
| 2026-04-29 20:30 | 13.67355 | -15.84888 | 35882 ft | 482 kts | 301° |
| 2026-04-29 20:31 | 13.71142 | -15.90581 | 35879 ft | 481 kts | 301° |
| 2026-04-29 20:31 | 13.74912 | -15.96251 | 35882 ft | 480 kts | 301° |
| 2026-04-29 20:32 | 13.78652 | -16.01883 | 35885 ft | 480 kts | 302° |
| 2026-04-29 20:32 | 13.82413 | -16.07548 | 35893 ft | 479 kts | 302° |
| 2026-04-29 20:33 | 13.86170 | -16.13212 | 35895 ft | 479 kts | 302° |
| 2026-04-29 20:33 | 13.89923 | -16.18873 | 35895 ft | 479 kts | 302° |
| 2026-04-29 20:34 | 13.93654 | -16.24505 | 35903 ft | 479 kts | 302° |
| 2026-04-29 20:34 | 13.97406 | -16.30172 | 35902 ft | 479 kts | 302° |
| 2026-04-29 20:35 | 14.01159 | -16.35844 | 35908 ft | 479 kts | 302° |
| 2026-04-29 20:35 | 14.04904 | -16.41508 | 35908 ft | 478 kts | 302° |
| 2026-04-29 20:36 | 14.08620 | -16.47132 | 35912 ft | 478 kts | 302° |
| 2026-04-29 20:36 | 14.12361 | -16.52799 | 35919 ft | 478 kts | 302° |
| 2026-04-29 20:37 | 14.16099 | -16.58464 | 35918 ft | 478 kts | 302° |
| 2026-04-29 20:37 | 14.19836 | -16.64131 | 35928 ft | 478 kts | 302° |
| 2026-04-29 20:38 | 14.23571 | -16.69800 | 35929 ft | 478 kts | 302° |
| 2026-04-29 20:38 | 14.27276 | -16.75427 | 35927 ft | 478 kts | 302° |
| 2026-04-29 20:39 | 14.31005 | -16.81094 | 35939 ft | 477 kts | 302° |
| 2026-04-29 20:39 | 14.34726 | -16.86751 | 35942 ft | 476 kts | 301° |
| 2026-04-29 20:40 | 14.38434 | -16.92395 | 35931 ft | 475 kts | 301° |
| 2026-04-29 20:40 | 14.42114 | -16.98000 | 35939 ft | 475 kts | 301° |
| 2026-04-29 20:41 | 14.45819 | -17.03647 | 35962 ft | 475 kts | 301° |
| 2026-04-29 20:41 | 14.49523 | -17.09295 | 35949 ft | 475 kts | 301° |
| 2026-04-29 20:42 | 14.53220 | -17.14937 | 35969 ft | 474 kts | 301° |
| 2026-04-29 20:42 | 14.56889 | -17.20540 | 35955 ft | 474 kts | 301° |
| 2026-04-29 20:43 | 14.60585 | -17.26188 | 35948 ft | 475 kts | 301° |
| 2026-04-29 20:43 | 14.64276 | -17.31833 | 35958 ft | 474 kts | 301° |
| 2026-04-29 20:44 | 14.67955 | -17.37462 | 35963 ft | 472 kts | 301° |
| 2026-04-29 20:44 | 14.71625 | -17.43082 | 35966 ft | 471 kts | 301° |
| 2026-04-29 20:45 | 14.74906 | -17.48854 | 35966 ft | 467 kts | 291° |
| 2026-04-29 20:45 | 14.77400 | -17.55038 | 35957 ft | 466 kts | 289° |
| 2026-04-29 20:46 | 14.79757 | -17.61277 | 35961 ft | 466 kts | 289° |
| 2026-04-29 20:46 | 14.82098 | -17.67529 | 35965 ft | 466 kts | 289° |
| 2026-04-29 20:47 | 14.84433 | -17.73732 | 35961 ft | 466 kts | 289° |
| 2026-04-29 20:47 | 14.86792 | -17.79977 | 35968 ft | 466 kts | 289° |
| 2026-04-29 20:48 | 14.89148 | -17.86215 | 35967 ft | 466 kts | 289° |
| 2026-04-29 20:48 | 14.91502 | -17.92456 | 35975 ft | 466 kts | 289° |
| 2026-04-29 20:49 | 14.93835 | -17.98645 | 35976 ft | 464 kts | 289° |
| 2026-04-29 20:49 | 14.96168 | -18.04855 | 35978 ft | 463 kts | 289° |
| 2026-04-29 20:50 | 14.98486 | -18.11069 | 35979 ft | 463 kts | 289° |
| 2026-04-29 20:50 | 15.00797 | -18.17272 | 35979 ft | 462 kts | 289° |
| 2026-04-29 20:51 | 15.03092 | -18.23431 | 35983 ft | 462 kts | 289° |
| 2026-04-29 20:51 | 15.05401 | -18.29628 | 35983 ft | 462 kts | 289° |
| 2026-04-29 20:52 | 15.07708 | -18.35827 | 35982 ft | 462 kts | 289° |
| 2026-04-29 20:52 | 15.10015 | -18.42033 | 35984 ft | 462 kts | 289° |
| 2026-04-29 20:53 | 15.12303 | -18.48191 | 35982 ft | 462 kts | 289° |
| 2026-04-29 20:53 | 15.14604 | -18.54390 | 35988 ft | 461 kts | 289° |
| 2026-04-29 20:54 | 15.18052 | -18.63694 | 35987 ft | 461 kts | 289° |
| 2026-04-29 20:55 | 15.20332 | -18.69850 | 35991 ft | 460 kts | 289° |
| 2026-04-29 20:55 | 15.22617 | -18.76028 | 35985 ft | 459 kts | 289° |
| 2026-04-29 20:56 | 15.24895 | -18.82194 | 35986 ft | 458 kts | 289° |
| 2026-04-29 20:56 | 15.27171 | -18.88361 | 35987 ft | 459 kts | 289° |
| 2026-04-29 20:57 | 15.29448 | -18.94533 | 35991 ft | 459 kts | 289° |
| 2026-04-29 20:57 | 15.31706 | -19.00663 | 35994 ft | 459 kts | 289° |
| 2026-04-29 20:58 | 15.33977 | -19.06833 | 35993 ft | 458 kts | 289° |
| 2026-04-29 20:58 | 15.36247 | -19.13004 | 35995 ft | 458 kts | 289° |
| 2026-04-29 20:59 | 15.38514 | -19.19176 | 35992 ft | 458 kts | 289° |
| 2026-04-29 20:59 | 15.40766 | -19.25311 | 35994 ft | 458 kts | 289° |
| 2026-04-29 21:00 | 15.43031 | -19.31487 | 35994 ft | 458 kts | 289° |
| 2026-04-29 21:00 | 15.45293 | -19.37663 | 35997 ft | 458 kts | 289° |
| 2026-04-29 21:01 | 15.47552 | -19.43834 | 36003 ft | 457 kts | 288° |
| 2026-04-29 21:01 | 15.49789 | -19.49953 | 35999 ft | 457 kts | 288° |
| 2026-04-29 21:02 | 15.52039 | -19.56112 | 36001 ft | 456 kts | 288° |
| 2026-04-29 21:02 | 15.54284 | -19.62265 | 35994 ft | 456 kts | 288° |
| 2026-04-29 21:03 | 15.56528 | -19.68422 | 35998 ft | 456 kts | 288° |
| 2026-04-29 21:03 | 15.58757 | -19.74541 | 35999 ft | 456 kts | 288° |
| 2026-04-29 21:04 | 15.60998 | -19.80701 | 36001 ft | 456 kts | 288° |
| 2026-04-29 21:04 | 15.63238 | -19.86863 | 35999 ft | 456 kts | 288° |
| 2026-04-29 21:05 | 15.65475 | -19.93025 | 35999 ft | 456 kts | 288° |
| 2026-04-29 21:05 | 15.68318 | -19.98928 | 35995 ft | 461 kts | 301° |
| 2026-04-29 21:06 | 15.72668 | -20.03822 | 36001 ft | 469 kts | 315° |
| 2026-04-29 21:06 | 15.77754 | -20.08103 | 36000 ft | 471 kts | 317° |
| 2026-04-29 21:07 | 15.82932 | -20.12280 | 36004 ft | 471 kts | 317° |
| 2026-04-29 21:07 | 15.88102 | -20.16472 | 36002 ft | 471 kts | 317° |
| 2026-04-29 21:08 | 15.93218 | -20.20658 | 36005 ft | 471 kts | 316° |
| 2026-04-29 21:08 | 15.98355 | -20.24879 | 36009 ft | 471 kts | 316° |
| 2026-04-29 21:09 | 16.03492 | -20.29104 | 36008 ft | 471 kts | 316° |
| 2026-04-29 21:09 | 16.08628 | -20.33329 | 36004 ft | 470 kts | 316° |
| 2026-04-29 21:10 | 16.13719 | -20.37519 | 36008 ft | 470 kts | 316° |
| 2026-04-29 21:10 | 16.18842 | -20.41738 | 36008 ft | 470 kts | 316° |
| 2026-04-29 21:11 | 16.23967 | -20.45962 | 36006 ft | 470 kts | 316° |
| 2026-04-29 21:11 | 16.29089 | -20.50187 | 36010 ft | 470 kts | 316° |
| 2026-04-29 21:12 | 16.34216 | -20.54418 | 36010 ft | 470 kts | 316° |
| 2026-04-29 21:12 | 16.39307 | -20.58621 | 36011 ft | 470 kts | 316° |
| 2026-04-29 21:13 | 16.44420 | -20.62847 | 36015 ft | 469 kts | 316° |
| 2026-04-29 21:13 | 16.49530 | -20.67074 | 36008 ft | 469 kts | 316° |
| 2026-04-29 21:14 | 16.54641 | -20.71303 | 36008 ft | 469 kts | 316° |
| 2026-04-29 21:14 | 16.59717 | -20.75507 | 36013 ft | 469 kts | 316° |
| 2026-04-29 21:15 | 16.64824 | -20.79739 | 36006 ft | 469 kts | 316° |
| 2026-04-29 21:15 | 16.69926 | -20.83969 | 36013 ft | 467 kts | 316° |
| 2026-04-29 21:16 | 16.75011 | -20.88189 | 36012 ft | 467 kts | 316° |
| 2026-04-29 21:16 | 16.80056 | -20.92378 | 36013 ft | 467 kts | 316° |
| 2026-04-29 21:17 | 16.85137 | -20.96602 | 36012 ft | 467 kts | 316° |
| 2026-04-29 21:17 | 16.90212 | -21.00823 | 36012 ft | 467 kts | 316° |
| 2026-04-29 21:18 | 16.95291 | -21.05050 | 36012 ft | 467 kts | 316° |
| 2026-04-29 21:18 | 17.00364 | -21.09274 | 36012 ft | 467 kts | 316° |
| 2026-04-29 21:19 | 17.05405 | -21.13476 | 36012 ft | 467 kts | 316° |
| 2026-04-29 21:19 | 17.10478 | -21.17706 | 36012 ft | 466 kts | 316° |
| 2026-04-29 21:20 | 17.15544 | -21.21934 | 36013 ft | 466 kts | 316° |
| 2026-04-29 21:20 | 17.20613 | -21.26168 | 36012 ft | 466 kts | 316° |
| 2026-04-29 21:21 | 17.25678 | -21.30401 | 36028 ft | 466 kts | 316° |
| 2026-04-29 21:21 | 17.30692 | -21.34595 | 36017 ft | 464 kts | 316° |
| 2026-04-29 21:22 | 17.35734 | -21.38815 | 36017 ft | 464 kts | 316° |
| 2026-04-29 21:22 | 17.40771 | -21.43034 | 36018 ft | 464 kts | 316° |
| 2026-04-29 21:23 | 17.45809 | -21.47258 | 36017 ft | 464 kts | 316° |
| 2026-04-29 21:23 | 17.50844 | -21.51482 | 36018 ft | 463 kts | 316° |
| 2026-04-29 21:24 | 17.55844 | -21.55679 | 36035 ft | 463 kts | 316° |
| 2026-04-29 21:24 | 17.60859 | -21.59890 | 36020 ft | 462 kts | 316° |
| 2026-04-29 21:25 | 17.65870 | -21.64103 | 36021 ft | 461 kts | 316° |
| 2026-04-29 21:25 | 17.70876 | -21.68316 | 36023 ft | 461 kts | 316° |
| 2026-04-29 21:26 | 17.75847 | -21.72501 | 36022 ft | 461 kts | 316° |
| 2026-04-29 21:26 | 17.80851 | -21.76717 | 36023 ft | 461 kts | 316° |
| 2026-04-29 21:27 | 17.85010 | -21.80223 | 36048 ft | 461 kts | 316° |
| 2026-04-29 21:27 | 17.90835 | -21.85137 | 36024 ft | 458 kts | 316° |
| 2026-04-29 21:28 | 17.95762 | -21.89298 | 36023 ft | 457 kts | 316° |
| 2026-04-29 21:28 | 18.00722 | -21.93490 | 36023 ft | 457 kts | 316° |
| 2026-04-29 21:29 | 18.05678 | -21.97683 | 36026 ft | 457 kts | 316° |
| 2026-04-29 21:29 | 18.10638 | -22.01880 | 36026 ft | 458 kts | 316° |
| 2026-04-29 21:30 | 18.15558 | -22.06047 | 36033 ft | 457 kts | 316° |
| 2026-04-29 21:30 | 18.20496 | -22.10231 | 36028 ft | 455 kts | 316° |
| 2026-04-29 21:31 | 18.25425 | -22.14412 | 36029 ft | 455 kts | 316° |
| 2026-04-29 21:31 | 18.30358 | -22.18600 | 36028 ft | 455 kts | 316° |
| 2026-04-29 21:32 | 18.35252 | -22.22758 | 36031 ft | 455 kts | 316° |
| 2026-04-29 21:32 | 18.40182 | -22.26949 | 36032 ft | 455 kts | 316° |
| 2026-04-29 21:33 | 18.45105 | -22.31137 | 36026 ft | 454 kts | 316° |
| 2026-04-29 21:33 | 18.50010 | -22.35312 | 36036 ft | 453 kts | 316° |
| 2026-04-29 21:34 | 18.54878 | -22.39460 | 36031 ft | 453 kts | 316° |
| 2026-04-29 21:34 | 18.59778 | -22.43640 | 36032 ft | 453 kts | 316° |
| 2026-04-29 21:35 | 18.64674 | -22.47818 | 36034 ft | 453 kts | 316° |
| 2026-04-29 21:35 | 18.69569 | -22.51998 | 36035 ft | 452 kts | 316° |
| 2026-04-29 21:36 | 18.74453 | -22.56172 | 36038 ft | 451 kts | 316° |
| 2026-04-29 21:36 | 18.79285 | -22.60304 | 36038 ft | 450 kts | 316° |
| 2026-04-29 21:37 | 18.84146 | -22.64465 | 36040 ft | 450 kts | 316° |
| 2026-04-29 21:37 | 18.89002 | -22.68626 | 36039 ft | 450 kts | 316° |
| 2026-04-29 21:38 | 18.93862 | -22.72792 | 36039 ft | 450 kts | 316° |
| 2026-04-29 21:38 | 18.98681 | -22.76927 | 36040 ft | 450 kts | 316° |
| 2026-04-29 21:39 | 19.03527 | -22.81087 | 36042 ft | 446 kts | 316° |
| 2026-04-29 21:39 | 19.08334 | -22.85216 | 36043 ft | 445 kts | 316° |
| 2026-04-29 21:40 | 19.13134 | -22.89345 | 36044 ft | 445 kts | 316° |
| 2026-04-29 21:40 | 19.17901 | -22.93448 | 36045 ft | 445 kts | 316° |
| 2026-04-29 21:41 | 19.22700 | -22.97582 | 36045 ft | 445 kts | 316° |
| 2026-04-29 21:41 | 19.27498 | -23.01717 | 36045 ft | 445 kts | 316° |
| 2026-04-29 21:42 | 19.32278 | -23.05839 | 36046 ft | 442 kts | 315° |
| 2026-04-29 21:42 | 19.36232 | -23.09251 | 36046 ft | 441 kts | 315° |
| 2026-04-29 21:43 | 19.41744 | -23.14015 | 36051 ft | 440 kts | 315° |
| 2026-04-29 21:43 | 19.46484 | -23.18114 | 36049 ft | 440 kts | 315° |
| 2026-04-29 21:44 | 19.51221 | -23.22214 | 36051 ft | 440 kts | 315° |
| 2026-04-29 21:44 | 19.55956 | -23.26314 | 36078 ft | 439 kts | 315° |
| 2026-04-29 21:45 | 19.60647 | -23.30377 | 36053 ft | 437 kts | 315° |
| 2026-04-29 21:45 | 19.65349 | -23.34456 | 36053 ft | 437 kts | 315° |
| 2026-04-29 21:46 | 19.70051 | -23.38538 | 36055 ft | 437 kts | 315° |
| 2026-04-29 21:46 | 19.74750 | -23.42620 | 36056 ft | 437 kts | 315° |
| 2026-04-29 21:47 | 19.79415 | -23.46676 | 36056 ft | 436 kts | 315° |
| 2026-04-29 21:47 | 19.84104 | -23.50756 | 36056 ft | 436 kts | 315° |
| 2026-04-29 21:48 | 19.88796 | -23.54841 | 36056 ft | 436 kts | 315° |
| 2026-04-29 21:48 | 19.93483 | -23.58925 | 36063 ft | 436 kts | 315° |
| 2026-04-29 21:49 | 19.98166 | -23.63010 | 36059 ft | 436 kts | 315° |
| 2026-04-29 21:49 | 20.02823 | -23.67075 | 36059 ft | 436 kts | 315° |
| 2026-04-29 21:50 | 20.07508 | -23.71167 | 36062 ft | 436 kts | 315° |
| 2026-04-29 21:50 | 20.12189 | -23.75259 | 36070 ft | 435 kts | 315° |
| 2026-04-29 21:51 | 20.16848 | -23.79333 | 36063 ft | 432 kts | 315° |
| 2026-04-29 21:51 | 20.23775 | -23.85400 | 36067 ft | 432 kts | 315° |
| 2026-04-29 21:52 | 20.28411 | -23.89465 | 36065 ft | 432 kts | 315° |
| 2026-04-29 21:52 | 20.33047 | -23.93533 | 36066 ft | 432 kts | 315° |
| 2026-04-29 21:53 | 20.37648 | -23.97572 | 36066 ft | 432 kts | 315° |
| 2026-04-29 21:53 | 20.42277 | -24.01639 | 36066 ft | 430 kts | 315° |
| 2026-04-29 21:54 | 20.46889 | -24.05695 | 36072 ft | 429 kts | 315° |
| 2026-04-29 21:54 | 20.51491 | -24.09746 | 36070 ft | 429 kts | 315° |
| 2026-04-29 21:55 | 20.56055 | -24.13766 | 36070 ft | 428 kts | 315° |
| 2026-04-29 21:55 | 20.60646 | -24.17814 | 36066 ft | 428 kts | 315° |
| 2026-04-29 21:56 | 20.65239 | -24.21866 | 36071 ft | 428 kts | 315° |
| 2026-04-29 21:56 | 20.69820 | -24.25911 | 36069 ft | 427 kts | 315° |
| 2026-04-29 21:57 | 20.74360 | -24.29922 | 36072 ft | 426 kts | 315° |
| 2026-04-29 21:57 | 20.78923 | -24.33958 | 36072 ft | 426 kts | 315° |
| 2026-04-29 21:58 | 20.83490 | -24.38001 | 36072 ft | 426 kts | 315° |
| 2026-04-29 21:58 | 20.88046 | -24.42038 | 36074 ft | 425 kts | 315° |
| 2026-04-29 21:59 | 20.92567 | -24.46045 | 36108 ft | 425 kts | 315° |
| 2026-04-29 21:59 | 20.97107 | -24.50073 | 36075 ft | 423 kts | 315° |
| 2026-04-29 22:00 | 21.01637 | -24.54095 | 36078 ft | 423 kts | 315° |
| 2026-04-29 22:00 | 21.06165 | -24.58120 | 36078 ft | 423 kts | 315° |
| 2026-04-29 22:01 | 21.10692 | -24.62148 | 36076 ft | 423 kts | 315° |
| 2026-04-29 22:01 | 21.15190 | -24.66152 | 36074 ft | 423 kts | 315° |
| 2026-04-29 22:02 | 21.19715 | -24.70183 | 36087 ft | 423 kts | 315° |
| 2026-04-29 22:02 | 21.24238 | -24.74216 | 36074 ft | 422 kts | 315° |
| 2026-04-29 22:03 | 21.28750 | -24.78242 | 36075 ft | 422 kts | 315° |
| 2026-04-29 22:03 | 21.33226 | -24.82240 | 36075 ft | 422 kts | 315° |
| 2026-04-29 22:04 | 21.37732 | -24.86268 | 36075 ft | 422 kts | 315° |
| 2026-04-29 22:04 | 21.42236 | -24.90298 | 36075 ft | 422 kts | 315° |
| 2026-04-29 22:05 | 21.46743 | -24.94333 | 36088 ft | 422 kts | 315° |
| 2026-04-29 22:06 | 21.53499 | -25.00390 | 36076 ft | 424 kts | 315° |
| 2026-04-29 22:06 | 21.58029 | -25.04454 | 36073 ft | 423 kts | 315° |
| 2026-04-29 22:07 | 21.62535 | -25.08498 | 36078 ft | 422 kts | 315° |
| 2026-04-29 22:07 | 21.67034 | -25.12541 | 36078 ft | 421 kts | 315° |
| 2026-04-29 22:08 | 21.71502 | -25.16561 | 36108 ft | 421 kts | 315° |
| 2026-04-29 22:08 | 21.76011 | -25.20622 | 36081 ft | 424 kts | 315° |
| 2026-04-29 22:09 | 21.80539 | -25.24702 | 36076 ft | 425 kts | 315° |
| 2026-04-29 22:09 | 21.85069 | -25.28786 | 36076 ft | 425 kts | 315° |
| 2026-04-29 22:10 | 21.89567 | -25.32844 | 36079 ft | 425 kts | 315° |
| 2026-04-29 22:10 | 21.94097 | -25.36936 | 36079 ft | 425 kts | 315° |
| 2026-04-29 22:11 | 21.98623 | -25.41028 | 36097 ft | 425 kts | 315° |
| 2026-04-29 22:11 | 22.03039 | -25.45024 | 36081 ft | 426 kts | 315° |
| 2026-04-29 22:12 | 22.07542 | -25.49102 | 36078 ft | 426 kts | 315° |
| 2026-04-29 22:12 | 22.12075 | -25.53211 | 36078 ft | 426 kts | 315° |
| 2026-04-29 22:13 | 22.16607 | -25.57323 | 36077 ft | 426 kts | 315° |
| 2026-04-29 22:13 | 22.21136 | -25.61435 | 36078 ft | 426 kts | 315° |
| 2026-04-29 22:14 | 22.25636 | -25.65525 | 36086 ft | 425 kts | 315° |
| 2026-04-29 22:14 | 22.30161 | -25.69640 | 36086 ft | 425 kts | 315° |
| 2026-04-29 22:15 | 22.34681 | -25.73755 | 36081 ft | 425 kts | 315° |
| 2026-04-29 22:15 | 22.39197 | -25.77870 | 36063 ft | 425 kts | 315° |
| 2026-04-29 22:16 | 22.43683 | -25.81961 | 36066 ft | 425 kts | 315° |
| 2026-04-29 22:16 | 22.48199 | -25.86084 | 36081 ft | 425 kts | 315° |
| 2026-04-29 22:17 | 22.51951 | -25.89511 | 36068 ft | 425 kts | 315° |
| 2026-04-29 22:17 | 22.57227 | -25.94335 | 36072 ft | 425 kts | 315° |
| 2026-04-29 22:18 | 22.61735 | -25.98461 | 36076 ft | 424 kts | 315° |
| 2026-04-29 22:18 | 22.66212 | -26.02562 | 36075 ft | 424 kts | 315° |
| 2026-04-29 22:19 | 22.70713 | -26.06688 | 36075 ft | 424 kts | 315° |
| 2026-04-29 22:19 | 22.75216 | -26.10821 | 36076 ft | 424 kts | 315° |
| 2026-04-29 22:20 | 22.79713 | -26.14952 | 36073 ft | 424 kts | 315° |
| 2026-04-29 22:20 | 22.84180 | -26.19058 | 36073 ft | 424 kts | 315° |
| 2026-04-29 22:21 | 22.88675 | -26.23194 | 36078 ft | 424 kts | 315° |
| 2026-04-29 22:21 | 22.93173 | -26.27337 | 36073 ft | 424 kts | 315° |
| 2026-04-29 22:22 | 22.97661 | -26.31473 | 36068 ft | 423 kts | 315° |
| 2026-04-29 22:22 | 23.02148 | -26.35614 | 36079 ft | 423 kts | 315° |
| 2026-04-29 22:23 | 23.06602 | -26.39727 | 36073 ft | 423 kts | 315° |
| 2026-04-29 22:23 | 23.11083 | -26.43869 | 36073 ft | 423 kts | 315° |
| 2026-04-29 22:24 | 23.15566 | -26.48016 | 36080 ft | 423 kts | 315° |
| 2026-04-29 22:24 | 23.20065 | -26.52148 | 36075 ft | 424 kts | 317° |
| 2026-04-29 22:25 | 23.25102 | -26.55478 | 36482 ft | 429 kts | 328° |
| 2026-04-29 22:25 | 23.27792 | -26.56851 | 36796 ft | 425 kts | 329° |
| 2026-04-29 22:25 | 23.30477 | -26.58160 | 37211 ft | 420 kts | 329° |
| 2026-04-29 22:25 | 23.33136 | -26.59429 | 37535 ft | 416 kts | 329° |
| 2026-04-29 22:26 | 23.35778 | -26.60683 | 37773 ft | 414 kts | 329° |
| 2026-04-29 22:26 | 23.38414 | -26.61937 | 37949 ft | 412 kts | 329° |
| 2026-04-29 22:26 | 23.41039 | -26.63191 | 38070 ft | 412 kts | 329° |
| 2026-04-29 22:27 | 23.46278 | -26.65709 | 38077 ft | 416 kts | 329° |
| 2026-04-29 22:27 | 23.51589 | -26.68268 | 38100 ft | 418 kts | 329° |
| 2026-04-29 22:28 | 23.56902 | -26.70827 | 38076 ft | 417 kts | 329° |
| 2026-04-29 22:28 | 23.62214 | -26.73387 | 38080 ft | 417 kts | 329° |
| 2026-04-29 22:29 | 23.66626 | -26.75515 | 38065 ft | 417 kts | 329° |
| 2026-04-29 22:29 | 23.72799 | -26.78496 | 38065 ft | 417 kts | 329° |
| 2026-04-29 22:30 | 23.78111 | -26.81065 | 38086 ft | 418 kts | 329° |
| 2026-04-29 22:30 | 23.83444 | -26.83647 | 38082 ft | 421 kts | 329° |
| 2026-04-29 22:31 | 23.88779 | -26.86231 | 38082 ft | 422 kts | 329° |
| 2026-04-29 22:31 | 23.94140 | -26.88826 | 38079 ft | 420 kts | 329° |
| 2026-04-29 22:32 | 23.99464 | -26.91407 | 38077 ft | 418 kts | 329° |
| 2026-04-29 22:32 | 24.04780 | -26.93989 | 38083 ft | 419 kts | 329° |
| 2026-04-29 22:33 | 24.10125 | -26.96591 | 38081 ft | 422 kts | 329° |
| 2026-04-29 22:33 | 24.15457 | -26.99186 | 38084 ft | 422 kts | 329° |
| 2026-04-29 22:34 | 24.20833 | -27.01801 | 38080 ft | 422 kts | 329° |
| 2026-04-29 22:34 | 24.26199 | -27.04416 | 38081 ft | 422 kts | 329° |
| 2026-04-29 22:35 | 24.30663 | -27.06594 | 38087 ft | 424 kts | 329° |
| 2026-04-29 22:35 | 24.36960 | -27.09672 | 38082 ft | 429 kts | 329° |
| 2026-04-29 22:36 | 24.42438 | -27.12351 | 38080 ft | 432 kts | 329° |
| 2026-04-29 22:36 | 24.46995 | -27.14577 | 38080 ft | 431 kts | 329° |
| 2026-04-29 22:37 | 24.52478 | -27.17259 | 38083 ft | 431 kts | 329° |
| 2026-04-29 22:37 | 24.58828 | -27.20369 | 38083 ft | 430 kts | 329° |
| 2026-04-29 22:38 | 24.64308 | -27.23061 | 38084 ft | 433 kts | 329° |
| 2026-04-29 22:38 | 24.68879 | -27.25307 | 38084 ft | 433 kts | 329° |
| 2026-04-29 22:39 | 24.74372 | -27.28005 | 38083 ft | 433 kts | 329° |
| 2026-04-29 22:39 | 24.80756 | -27.31146 | 38107 ft | 433 kts | 329° |
| 2026-04-29 22:40 | 24.85339 | -27.33405 | 38093 ft | 436 kts | 329° |
| 2026-04-29 22:40 | 24.90903 | -27.36150 | 38076 ft | 439 kts | 329° |
| 2026-04-29 22:41 | 24.96480 | -27.38900 | 38094 ft | 439 kts | 329° |
| 2026-04-29 22:41 | 25.02051 | -27.41650 | 38095 ft | 438 kts | 329° |
| 2026-04-29 22:42 | 25.07617 | -27.44401 | 38082 ft | 439 kts | 329° |
| 2026-04-29 22:42 | 25.13147 | -27.47138 | 38094 ft | 439 kts | 329° |
| 2026-04-29 22:43 | 25.18704 | -27.49889 | 38087 ft | 436 kts | 329° |
| 2026-04-29 22:43 | 25.24221 | -27.52624 | 38089 ft | 434 kts | 329° |
| 2026-04-29 22:44 | 25.29732 | -27.55362 | 38096 ft | 434 kts | 329° |
| 2026-04-29 22:44 | 25.35176 | -27.58069 | 38092 ft | 436 kts | 329° |
| 2026-04-29 22:45 | 25.40708 | -27.60820 | 38091 ft | 436 kts | 329° |
| 2026-04-29 22:45 | 25.47168 | -27.64036 | 38091 ft | 436 kts | 329° |
| 2026-04-29 22:46 | 25.51761 | -27.66325 | 38089 ft | 435 kts | 329° |
| 2026-04-29 22:46 | 25.57286 | -27.69082 | 38106 ft | 436 kts | 330° |
| 2026-04-29 22:47 | 25.62796 | -27.71836 | 38093 ft | 439 kts | 330° |
| 2026-04-29 22:47 | 25.68367 | -27.74621 | 38092 ft | 440 kts | 330° |
| 2026-04-29 22:48 | 25.73944 | -27.77411 | 38095 ft | 439 kts | 330° |
| 2026-04-29 22:48 | 25.79468 | -27.80175 | 38092 ft | 437 kts | 329° |
| 2026-04-29 22:49 | 25.85020 | -27.82960 | 38084 ft | 439 kts | 330° |
| 2026-04-29 22:49 | 25.90599 | -27.85764 | 38089 ft | 441 kts | 330° |
| 2026-04-29 22:50 | 25.96189 | -27.88573 | 38088 ft | 441 kts | 330° |
| 2026-04-29 22:50 | 26.01777 | -27.91382 | 38090 ft | 441 kts | 330° |
| 2026-04-29 22:51 | 26.07325 | -27.94176 | 38098 ft | 441 kts | 330° |
| 2026-04-29 22:51 | 26.15719 | -27.98409 | 38092 ft | 442 kts | 330° |
| 2026-04-29 22:52 | 26.21316 | -28.01234 | 38093 ft | 442 kts | 330° |
| 2026-04-29 22:52 | 26.26876 | -28.04044 | 38094 ft | 442 kts | 330° |
| 2026-04-29 22:53 | 26.32475 | -28.06877 | 38104 ft | 442 kts | 330° |
| 2026-04-29 22:53 | 26.38073 | -28.09712 | 38091 ft | 442 kts | 330° |
| 2026-04-29 22:54 | 26.43672 | -28.12552 | 38097 ft | 442 kts | 330° |
| 2026-04-29 22:54 | 26.49240 | -28.15378 | 38096 ft | 442 kts | 330° |
| 2026-04-29 22:55 | 26.54838 | -28.18222 | 38113 ft | 442 kts | 330° |
| 2026-04-29 22:55 | 26.60438 | -28.21071 | 38092 ft | 442 kts | 330° |
| 2026-04-29 22:56 | 26.66032 | -28.23919 | 38093 ft | 442 kts | 330° |
| 2026-04-29 22:56 | 26.71627 | -28.26771 | 38094 ft | 442 kts | 330° |
| 2026-04-29 22:57 | 26.77217 | -28.29624 | 38095 ft | 442 kts | 330° |
| 2026-04-29 22:57 | 26.82773 | -28.32463 | 38094 ft | 441 kts | 330° |
| 2026-04-29 22:58 | 26.88356 | -28.35318 | 38094 ft | 441 kts | 330° |
| 2026-04-29 22:58 | 26.93935 | -28.38174 | 38094 ft | 441 kts | 330° |
| 2026-04-29 22:59 | 26.99513 | -28.41034 | 38094 ft | 441 kts | 330° |
| 2026-04-29 22:59 | 27.05056 | -28.43878 | 38100 ft | 440 kts | 330° |
| 2026-04-29 23:00 | 27.10618 | -28.46735 | 38100 ft | 439 kts | 330° |
| 2026-04-29 23:00 | 27.16172 | -28.49591 | 38100 ft | 439 kts | 330° |
| 2026-04-29 23:01 | 27.21728 | -28.52452 | 38094 ft | 439 kts | 330° |
| 2026-04-29 23:01 | 27.27283 | -28.55315 | 38111 ft | 439 kts | 330° |
| 2026-04-29 23:02 | 27.32788 | -28.58154 | 38099 ft | 438 kts | 330° |
| 2026-04-29 23:02 | 27.38324 | -28.61013 | 38100 ft | 438 kts | 330° |
| 2026-04-29 23:03 | 27.43860 | -28.63876 | 38097 ft | 438 kts | 330° |
| 2026-04-29 23:03 | 27.49355 | -28.66721 | 38087 ft | 438 kts | 330° |
| 2026-04-29 23:04 | 27.54893 | -28.69591 | 38099 ft | 439 kts | 330° |
| 2026-04-29 23:04 | 27.60441 | -28.72470 | 38099 ft | 439 kts | 330° |
| 2026-04-29 23:05 | 27.65990 | -28.75352 | 38096 ft | 439 kts | 330° |
| 2026-04-29 23:05 | 27.71537 | -28.78236 | 38097 ft | 439 kts | 330° |
| 2026-04-29 23:06 | 27.77042 | -28.81101 | 38100 ft | 438 kts | 330° |
| 2026-04-29 23:06 | 27.82576 | -28.83985 | 38099 ft | 438 kts | 330° |
| 2026-04-29 23:07 | 27.88102 | -28.86868 | 38098 ft | 438 kts | 330° |
| 2026-04-29 23:07 | 27.93631 | -28.89756 | 38096 ft | 438 kts | 330° |
| 2026-04-29 23:08 | 27.99124 | -28.92629 | 38106 ft | 437 kts | 330° |
| 2026-04-29 23:08 | 28.04631 | -28.95511 | 38085 ft | 436 kts | 330° |
| 2026-04-29 23:09 | 28.10146 | -28.98403 | 38095 ft | 438 kts | 330° |
| 2026-04-29 23:09 | 28.15673 | -29.01303 | 38093 ft | 438 kts | 330° |
| 2026-04-29 23:10 | 28.21206 | -29.04209 | 38116 ft | 438 kts | 330° |
| 2026-04-29 23:10 | 28.26686 | -29.07089 | 38091 ft | 436 kts | 330° |
| 2026-04-29 23:11 | 28.32187 | -29.09985 | 38090 ft | 436 kts | 330° |
| 2026-04-29 23:11 | 28.37689 | -29.12886 | 38090 ft | 436 kts | 330° |
| 2026-04-29 23:12 | 28.43148 | -29.15767 | 38093 ft | 436 kts | 330° |
| 2026-04-29 23:12 | 28.48641 | -29.18669 | 38094 ft | 434 kts | 330° |
| 2026-04-29 23:13 | 28.54115 | -29.21564 | 38095 ft | 434 kts | 330° |
| 2026-04-29 23:13 | 28.59595 | -29.24467 | 38095 ft | 434 kts | 330° |
| 2026-04-29 23:14 | 28.65076 | -29.27373 | 38095 ft | 435 kts | 330° |
| 2026-04-29 23:14 | 28.70527 | -29.30266 | 38098 ft | 435 kts | 330° |
| 2026-04-29 23:15 | 28.76003 | -29.33175 | 38098 ft | 434 kts | 330° |
| 2026-04-29 23:15 | 28.81479 | -29.36088 | 38097 ft | 434 kts | 330° |
| 2026-04-29 23:16 | 28.86954 | -29.39004 | 38098 ft | 434 kts | 330° |
| 2026-04-29 23:16 | 28.92422 | -29.41919 | 38099 ft | 433 kts | 330° |
| 2026-04-29 23:17 | 28.97835 | -29.44808 | 38095 ft | 432 kts | 330° |
| 2026-04-29 23:17 | 29.03281 | -29.47720 | 38091 ft | 432 kts | 330° |
| 2026-04-29 23:18 | 29.08733 | -29.50637 | 38097 ft | 432 kts | 330° |
| 2026-04-29 23:18 | 29.14176 | -29.53553 | 38103 ft | 432 kts | 330° |
| 2026-04-29 23:19 | 29.19581 | -29.56452 | 38093 ft | 432 kts | 329° |
| 2026-04-29 23:19 | 29.25029 | -29.59378 | 38090 ft | 433 kts | 329° |
| 2026-04-29 23:20 | 29.30479 | -29.62308 | 38092 ft | 433 kts | 329° |
| 2026-04-29 23:20 | 29.35930 | -29.65242 | 38101 ft | 432 kts | 329° |
| 2026-04-29 23:21 | 29.41333 | -29.68153 | 38090 ft | 432 kts | 329° |
| 2026-04-29 23:21 | 29.46769 | -29.71086 | 38098 ft | 432 kts | 329° |
| 2026-04-29 23:22 | 29.52207 | -29.74024 | 38084 ft | 432 kts | 329° |
| 2026-04-29 23:22 | 29.57642 | -29.76964 | 38090 ft | 432 kts | 329° |
| 2026-04-29 23:23 | 29.63033 | -29.79882 | 38083 ft | 431 kts | 329° |
| 2026-04-29 23:23 | 29.68459 | -29.82824 | 38066 ft | 431 kts | 329° |
| 2026-04-29 23:24 | 29.73890 | -29.85772 | 38077 ft | 432 kts | 329° |
| 2026-04-29 23:24 | 29.79334 | -29.88731 | 38077 ft | 433 kts | 329° |
| 2026-04-29 23:25 | 29.84743 | -29.91673 | 38077 ft | 433 kts | 329° |
| 2026-04-29 23:25 | 29.90183 | -29.94636 | 38077 ft | 433 kts | 329° |
| 2026-04-29 23:26 | 29.95626 | -29.97607 | 38075 ft | 433 kts | 329° |
| 2026-04-29 23:26 | 30.00662 | -30.01250 | 38087 ft | 424 kts | 316° |
| 2026-04-29 23:27 | 30.04813 | -30.05946 | 38077 ft | 420 kts | 310° |
| 2026-04-29 23:27 | 30.08770 | -30.10897 | 38072 ft | 419 kts | 309° |
| 2026-04-29 23:28 | 30.12701 | -30.15888 | 38074 ft | 421 kts | 309° |
| 2026-04-29 23:28 | 30.16656 | -30.20890 | 38073 ft | 422 kts | 309° |
| 2026-04-29 23:29 | 30.20593 | -30.25852 | 38076 ft | 421 kts | 309° |
| 2026-04-29 23:29 | 30.24547 | -30.30835 | 38072 ft | 420 kts | 309° |
| 2026-04-29 23:30 | 30.28494 | -30.35816 | 38072 ft | 420 kts | 309° |
| 2026-04-29 23:30 | 30.32442 | -30.40806 | 38057 ft | 420 kts | 309° |
| 2026-04-29 23:31 | 30.36394 | -30.45809 | 38070 ft | 422 kts | 309° |
| 2026-04-29 23:31 | 30.40330 | -30.50798 | 38068 ft | 421 kts | 309° |
| 2026-04-29 23:32 | 30.44276 | -30.55804 | 38074 ft | 421 kts | 309° |
| 2026-04-29 23:32 | 30.48221 | -30.60815 | 38074 ft | 421 kts | 309° |
| 2026-04-29 23:33 | 30.52163 | -30.65831 | 38074 ft | 421 kts | 309° |
| 2026-04-29 23:33 | 30.56079 | -30.70820 | 38100 ft | 422 kts | 309° |
| 2026-04-29 23:34 | 30.60020 | -30.75847 | 38069 ft | 421 kts | 309° |
| 2026-04-29 23:34 | 30.63958 | -30.80876 | 38070 ft | 420 kts | 309° |
| 2026-04-29 23:35 | 30.67887 | -30.85901 | 38067 ft | 420 kts | 309° |
| 2026-04-29 23:35 | 30.71790 | -30.90899 | 38067 ft | 420 kts | 309° |
| 2026-04-29 23:36 | 30.75719 | -30.95937 | 38070 ft | 419 kts | 309° |
| 2026-04-29 23:36 | 30.79627 | -31.00953 | 38066 ft | 419 kts | 308° |
| 2026-04-29 23:37 | 30.83535 | -31.05977 | 38062 ft | 419 kts | 308° |
| 2026-04-29 23:37 | 30.87443 | -31.11009 | 38061 ft | 419 kts | 308° |
| 2026-04-29 23:38 | 30.91320 | -31.16007 | 38059 ft | 419 kts | 308° |
| 2026-04-29 23:38 | 30.95217 | -31.21036 | 38054 ft | 417 kts | 309° |
| 2026-04-29 23:39 | 30.99093 | -31.26043 | 38059 ft | 416 kts | 308° |
| 2026-04-29 23:39 | 31.02939 | -31.31020 | 38059 ft | 416 kts | 308° |
| 2026-04-29 23:40 | 31.06810 | -31.36037 | 38059 ft | 416 kts | 308° |
| 2026-04-29 23:40 | 31.10678 | -31.41055 | 38058 ft | 416 kts | 308° |
| 2026-04-29 23:41 | 31.14540 | -31.46072 | 38055 ft | 415 kts | 308° |
| 2026-04-29 23:41 | 31.18400 | -31.51094 | 38052 ft | 415 kts | 308° |
| 2026-04-29 23:42 | 31.22237 | -31.56093 | 38061 ft | 417 kts | 308° |
| 2026-04-29 23:42 | 31.26114 | -31.61151 | 38050 ft | 418 kts | 308° |
| 2026-04-29 23:43 | 31.29996 | -31.66219 | 38057 ft | 418 kts | 308° |
| 2026-04-29 23:43 | 31.33877 | -31.71294 | 38048 ft | 418 kts | 308° |
| 2026-04-29 23:44 | 31.37726 | -31.76335 | 38053 ft | 418 kts | 308° |
| 2026-04-29 23:44 | 31.41603 | -31.81419 | 38037 ft | 419 kts | 308° |
| 2026-04-29 23:45 | 31.45487 | -31.86518 | 38078 ft | 420 kts | 307° |
| 2026-04-29 23:45 | 31.49370 | -31.91623 | 38050 ft | 419 kts | 307° |
| 2026-04-29 23:46 | 31.53244 | -31.96723 | 38051 ft | 419 kts | 307° |
| 2026-04-29 23:46 | 31.57091 | -32.01796 | 38051 ft | 419 kts | 307° |
| 2026-04-29 23:47 | 31.60958 | -32.06901 | 38048 ft | 419 kts | 307° |
| 2026-04-29 23:47 | 31.64830 | -32.12021 | 38051 ft | 421 kts | 307° |
| 2026-04-29 23:48 | 31.68688 | -32.17127 | 38047 ft | 421 kts | 307° |
| 2026-04-29 23:48 | 31.72573 | -32.22277 | 38049 ft | 421 kts | 307° |
| 2026-04-29 23:49 | 31.76454 | -32.27428 | 38049 ft | 421 kts | 307° |
| 2026-04-29 23:49 | 31.80335 | -32.32586 | 38059 ft | 421 kts | 307° |
| 2026-04-29 23:50 | 31.84216 | -32.37752 | 38054 ft | 422 kts | 307° |
| 2026-04-29 23:51 | 31.90032 | -32.45508 | 38046 ft | 424 kts | 307° |
| 2026-04-29 23:51 | 31.93928 | -32.50710 | 38046 ft | 424 kts | 307° |
| 2026-04-29 23:52 | 31.97821 | -32.55917 | 38055 ft | 424 kts | 307° |
| 2026-04-29 23:52 | 32.01719 | -32.61138 | 38034 ft | 424 kts | 307° |
| 2026-04-29 23:53 | 32.05596 | -32.66338 | 38049 ft | 427 kts | 307° |
| 2026-04-29 23:53 | 32.09516 | -32.71605 | 38044 ft | 428 kts | 307° |
| 2026-04-29 23:54 | 32.13444 | -32.76886 | 38053 ft | 428 kts | 306° |
| 2026-04-29 23:54 | 32.17374 | -32.82179 | 38043 ft | 430 kts | 306° |
| 2026-04-29 23:55 | 32.21295 | -32.87469 | 38042 ft | 431 kts | 306° |
| 2026-04-29 23:55 | 32.25241 | -32.92800 | 38044 ft | 432 kts | 306° |
| 2026-04-29 23:56 | 32.29197 | -32.98150 | 38066 ft | 432 kts | 306° |
| 2026-04-29 23:56 | 32.33130 | -33.03474 | 38042 ft | 427 kts | 306° |
| 2026-04-29 23:57 | 32.37003 | -33.08727 | 38043 ft | 426 kts | 306° |
| 2026-04-29 23:57 | 32.40893 | -33.14014 | 38037 ft | 426 kts | 306° |
| 2026-04-29 23:58 | 32.44782 | -33.19307 | 38039 ft | 426 kts | 306° |
| 2026-04-29 23:58 | 32.48673 | -33.24608 | 38040 ft | 426 kts | 305° |
| 2026-04-29 23:59 | 32.52560 | -33.29912 | 38040 ft | 426 kts | 305° |
| 2026-04-29 23:59 | 32.56425 | -33.35193 | 38040 ft | 427 kts | 305° |
| 2026-04-30 00:00 | 32.60311 | -33.40510 | 38041 ft | 427 kts | 305° |
| 2026-04-30 00:00 | 32.64197 | -33.45836 | 38042 ft | 428 kts | 305° |
| 2026-04-30 00:01 | 32.68099 | -33.51192 | 38039 ft | 429 kts | 305° |
| 2026-04-30 00:01 | 32.72006 | -33.56560 | 38037 ft | 430 kts | 305° |
| 2026-04-30 00:02 | 32.75883 | -33.61895 | 38039 ft | 430 kts | 305° |
| 2026-04-30 00:02 | 32.79782 | -33.67268 | 38040 ft | 428 kts | 305° |
| 2026-04-30 00:03 | 32.83668 | -33.72631 | 38028 ft | 428 kts | 305° |
| 2026-04-30 00:03 | 32.87558 | -33.78010 | 38034 ft | 429 kts | 305° |
| 2026-04-30 00:04 | 32.91421 | -33.83358 | 38035 ft | 429 kts | 305° |
| 2026-04-30 00:04 | 32.95305 | -33.88742 | 38024 ft | 428 kts | 304° |
| 2026-04-30 00:05 | 32.99180 | -33.94121 | 38038 ft | 428 kts | 304° |
| 2026-04-30 00:05 | 33.03050 | -33.99503 | 38045 ft | 427 kts | 304° |
| 2026-04-30 00:06 | 33.06890 | -34.04852 | 38033 ft | 427 kts | 304° |
| 2026-04-30 00:06 | 33.10756 | -34.10242 | 38035 ft | 427 kts | 304° |
| 2026-04-30 00:07 | 33.14610 | -34.15624 | 38035 ft | 426 kts | 304° |
| 2026-04-30 00:07 | 33.18460 | -34.21010 | 38037 ft | 426 kts | 304° |
| 2026-04-30 00:08 | 33.22309 | -34.26402 | 38033 ft | 427 kts | 304° |
| 2026-04-30 00:08 | 33.26129 | -34.31762 | 38034 ft | 427 kts | 304° |
| 2026-04-30 00:09 | 33.29976 | -34.37167 | 38037 ft | 427 kts | 304° |
| 2026-04-30 00:09 | 33.33816 | -34.42570 | 38039 ft | 427 kts | 304° |
| 2026-04-30 00:10 | 33.37657 | -34.47982 | 38021 ft | 427 kts | 304° |
| 2026-04-30 00:10 | 33.41472 | -34.53366 | 38037 ft | 427 kts | 304° |
| 2026-04-30 00:11 | 33.45307 | -34.58786 | 38034 ft | 426 kts | 304° |
| 2026-04-30 00:11 | 33.49139 | -34.64210 | 38034 ft | 426 kts | 304° |
| 2026-04-30 00:12 | 33.52965 | -34.69634 | 38036 ft | 426 kts | 304° |
| 2026-04-30 00:12 | 33.56765 | -34.75029 | 38037 ft | 426 kts | 304° |
| 2026-04-30 00:13 | 33.60586 | -34.80462 | 38034 ft | 426 kts | 304° |
| 2026-04-30 00:13 | 33.64403 | -34.85898 | 38033 ft | 426 kts | 304° |
| 2026-04-30 00:14 | 33.68221 | -34.91343 | 38030 ft | 426 kts | 304° |
| 2026-04-30 00:14 | 33.72010 | -34.96754 | 38033 ft | 426 kts | 303° |
| 2026-04-30 00:15 | 33.75822 | -35.02208 | 38044 ft | 426 kts | 303° |
| 2026-04-30 00:15 | 33.79631 | -35.07665 | 38034 ft | 426 kts | 303° |
| 2026-04-30 00:16 | 33.83438 | -35.13127 | 38033 ft | 426 kts | 303° |
| 2026-04-30 00:16 | 33.87218 | -35.18559 | 38037 ft | 426 kts | 303° |
| 2026-04-30 00:17 | 33.91021 | -35.24034 | 38034 ft | 426 kts | 303° |
| 2026-04-30 00:17 | 33.94827 | -35.29519 | 38034 ft | 427 kts | 303° |
| 2026-04-30 00:18 | 33.98631 | -35.35010 | 38038 ft | 427 kts | 303° |
| 2026-04-30 00:18 | 34.02432 | -35.40506 | 38037 ft | 427 kts | 303° |
| 2026-04-30 00:19 | 34.06207 | -35.45973 | 38041 ft | 427 kts | 303° |
| 2026-04-30 00:19 | 34.10008 | -35.51485 | 38036 ft | 427 kts | 303° |
| 2026-04-30 00:20 | 34.13804 | -35.56998 | 38064 ft | 427 kts | 303° |
| 2026-04-30 00:20 | 34.17604 | -35.62527 | 38040 ft | 428 kts | 303° |
| 2026-04-30 00:21 | 34.21375 | -35.68023 | 38040 ft | 428 kts | 303° |
| 2026-04-30 00:21 | 34.25174 | -35.73566 | 38041 ft | 428 kts | 303° |
| 2026-04-30 00:22 | 34.28968 | -35.79110 | 38042 ft | 428 kts | 302° |
| 2026-04-30 00:22 | 34.32767 | -35.84673 | 38039 ft | 429 kts | 302° |
| 2026-04-30 00:23 | 34.36565 | -35.90241 | 38042 ft | 429 kts | 302° |
| 2026-04-30 00:23 | 34.40336 | -35.95778 | 38045 ft | 429 kts | 302° |
| 2026-04-30 00:24 | 34.44130 | -36.01358 | 38032 ft | 429 kts | 302° |
| 2026-04-30 00:24 | 34.47933 | -36.06962 | 38043 ft | 431 kts | 302° |
| 2026-04-30 00:25 | 34.51711 | -36.12536 | 38042 ft | 431 kts | 302° |
| 2026-04-30 00:25 | 34.55513 | -36.18152 | 38042 ft | 431 kts | 302° |
| 2026-04-30 00:26 | 34.59316 | -36.23783 | 38045 ft | 432 kts | 302° |
| 2026-04-30 00:26 | 34.63125 | -36.29431 | 38040 ft | 433 kts | 302° |
| 2026-04-30 00:27 | 34.66934 | -36.35085 | 38040 ft | 433 kts | 302° |
| 2026-04-30 00:27 | 34.70715 | -36.40708 | 38040 ft | 433 kts | 302° |
| 2026-04-30 00:28 | 34.74519 | -36.46374 | 38040 ft | 432 kts | 302° |
| 2026-04-30 00:28 | 34.78320 | -36.52046 | 38040 ft | 432 kts | 302° |
| 2026-04-30 00:29 | 34.82118 | -36.57721 | 38040 ft | 432 kts | 302° |
| 2026-04-30 00:29 | 34.85887 | -36.63364 | 38032 ft | 433 kts | 302° |
| 2026-04-30 00:30 | 34.89688 | -36.69064 | 38038 ft | 434 kts | 302° |
| 2026-04-30 00:30 | 34.93489 | -36.74771 | 38042 ft | 434 kts | 302° |
| 2026-04-30 00:31 | 34.97284 | -36.80477 | 38050 ft | 433 kts | 302° |
| 2026-04-30 00:31 | 35.01056 | -36.86163 | 38051 ft | 435 kts | 302° |
| 2026-04-30 00:32 | 35.04860 | -36.91904 | 38040 ft | 435 kts | 302° |
| 2026-04-30 00:32 | 35.08666 | -36.97656 | 38047 ft | 435 kts | 302° |
| 2026-04-30 00:33 | 35.12468 | -37.03412 | 38040 ft | 435 kts | 302° |
| 2026-04-30 00:33 | 35.16245 | -37.09139 | 38042 ft | 436 kts | 302° |
| 2026-04-30 00:34 | 35.20047 | -37.14916 | 38043 ft | 436 kts | 302° |
| 2026-04-30 00:34 | 35.23845 | -37.20694 | 38063 ft | 436 kts | 302° |
| 2026-04-30 00:35 | 35.27645 | -37.26485 | 38033 ft | 436 kts | 302° |
| 2026-04-30 00:35 | 35.31415 | -37.32240 | 38040 ft | 436 kts | 302° |
| 2026-04-30 00:36 | 35.35202 | -37.38030 | 38043 ft | 436 kts | 302° |
| 2026-04-30 00:36 | 35.38990 | -37.43833 | 38043 ft | 436 kts | 302° |
| 2026-04-30 00:37 | 35.42778 | -37.49648 | 38039 ft | 437 kts | 302° |
| 2026-04-30 00:37 | 35.46567 | -37.55468 | 38039 ft | 436 kts | 302° |
| 2026-04-30 00:38 | 35.50323 | -37.61249 | 38051 ft | 436 kts | 302° |
| 2026-04-30 00:38 | 35.54102 | -37.67078 | 38041 ft | 437 kts | 302° |
| 2026-04-30 00:39 | 35.57890 | -37.72930 | 38042 ft | 437 kts | 302° |
| 2026-04-30 00:39 | 35.61669 | -37.78775 | 38042 ft | 436 kts | 302° |
| 2026-04-30 00:40 | 35.65416 | -37.84583 | 38045 ft | 437 kts | 302° |
| 2026-04-30 00:40 | 35.69190 | -37.90442 | 38046 ft | 437 kts | 302° |
| 2026-04-30 00:41 | 35.72960 | -37.96305 | 38045 ft | 437 kts | 302° |
| 2026-04-30 00:41 | 35.76717 | -38.02155 | 38055 ft | 436 kts | 302° |
| 2026-04-30 00:42 | 35.80448 | -38.07979 | 38055 ft | 436 kts | 302° |
| 2026-04-30 00:42 | 35.84204 | -38.13849 | 38035 ft | 436 kts | 302° |
| 2026-04-30 00:43 | 35.87955 | -38.19723 | 38046 ft | 436 kts | 302° |
| 2026-04-30 00:43 | 35.91701 | -38.25598 | 38049 ft | 435 kts | 302° |
| 2026-04-30 00:44 | 35.95419 | -38.31437 | 38046 ft | 435 kts | 302° |
| 2026-04-30 00:44 | 35.99153 | -38.37314 | 38046 ft | 435 kts | 302° |
| 2026-04-30 00:45 | 36.02884 | -38.43196 | 38040 ft | 435 kts | 302° |
| 2026-04-30 00:45 | 36.06604 | -38.49069 | 38049 ft | 433 kts | 302° |
| 2026-04-30 00:46 | 36.10310 | -38.54932 | 38061 ft | 432 kts | 302° |
| 2026-04-30 00:46 | 36.13987 | -38.60761 | 38048 ft | 434 kts | 302° |
| 2026-04-30 00:47 | 36.17706 | -38.66665 | 38047 ft | 435 kts | 302° |
| 2026-04-30 00:47 | 36.21419 | -38.72567 | 38050 ft | 434 kts | 302° |
| 2026-04-30 00:48 | 36.25120 | -38.78461 | 38051 ft | 434 kts | 302° |
| 2026-04-30 00:48 | 36.28810 | -38.84351 | 38047 ft | 436 kts | 302° |
| 2026-04-30 00:49 | 36.32527 | -38.90292 | 38048 ft | 436 kts | 302° |
| 2026-04-30 00:49 | 36.36240 | -38.96236 | 38056 ft | 436 kts | 302° |
| 2026-04-30 00:50 | 36.39962 | -39.02207 | 38049 ft | 438 kts | 302° |
| 2026-04-30 00:50 | 36.43689 | -39.08194 | 38052 ft | 438 kts | 302° |
| 2026-04-30 00:51 | 36.47387 | -39.14147 | 38048 ft | 438 kts | 302° |
| 2026-04-30 00:51 | 36.51106 | -39.20142 | 38051 ft | 439 kts | 303° |
| 2026-04-30 00:52 | 36.54828 | -39.26154 | 38053 ft | 439 kts | 303° |
| 2026-04-30 00:52 | 36.58551 | -39.32180 | 38052 ft | 439 kts | 302° |
| 2026-04-30 00:53 | 36.62244 | -39.38166 | 38050 ft | 440 kts | 303° |
| 2026-04-30 00:53 | 36.65967 | -39.44211 | 38054 ft | 440 kts | 303° |
| 2026-04-30 00:54 | 36.69686 | -39.50259 | 38053 ft | 440 kts | 303° |
| 2026-04-30 00:54 | 36.73402 | -39.56317 | 38054 ft | 441 kts | 303° |
| 2026-04-30 00:55 | 36.77104 | -39.62361 | 38055 ft | 442 kts | 303° |
| 2026-04-30 00:55 | 36.82703 | -39.71522 | 38064 ft | 443 kts | 303° |
| 2026-04-30 00:56 | 36.86441 | -39.77652 | 38056 ft | 444 kts | 303° |
| 2026-04-30 00:56 | 36.90184 | -39.83802 | 38058 ft | 445 kts | 303° |
| 2026-04-30 00:57 | 36.93906 | -39.89928 | 38067 ft | 446 kts | 303° |
| 2026-04-30 00:57 | 36.97659 | -39.96118 | 38059 ft | 447 kts | 303° |
| 2026-04-30 00:58 | 36.99536 | -39.99216 | 38213 ft | 446 kts | 303° |
| 2026-04-30 00:58 | 37.01399 | -40.02309 | 38481 ft | 444 kts | 302° |
| 2026-04-30 00:58 | 37.03222 | -40.05416 | 38665 ft | 442 kts | 301° |
| 2026-04-30 00:58 | 37.05024 | -40.08537 | 38814 ft | 442 kts | 301° |
| 2026-04-30 00:59 | 37.08595 | -40.14764 | 38945 ft | 444 kts | 301° |
| 2026-04-30 00:59 | 37.10398 | -40.17900 | 39055 ft | 444 kts | 302° |
| 2026-04-30 00:59 | 37.12203 | -40.21034 | 39153 ft | 444 kts | 302° |
| 2026-04-30 01:00 | 37.14014 | -40.24174 | 39264 ft | 444 kts | 302° |
| 2026-04-30 01:00 | 37.15821 | -40.27305 | 39351 ft | 444 kts | 302° |
| 2026-04-30 01:00 | 37.19445 | -40.33593 | 39493 ft | 445 kts | 302° |
| 2026-04-30 01:01 | 37.23044 | -40.39849 | 39657 ft | 445 kts | 302° |
| 2026-04-30 01:01 | 37.26663 | -40.46153 | 39841 ft | 445 kts | 302° |
| 2026-04-30 01:02 | 37.30289 | -40.52482 | 39922 ft | 447 kts | 302° |
| 2026-04-30 01:02 | 37.33918 | -40.58829 | 40056 ft | 448 kts | 302° |
| 2026-04-30 01:03 | 37.37559 | -40.65208 | 40068 ft | 450 kts | 302° |
| 2026-04-30 01:03 | 37.41185 | -40.71573 | 40062 ft | 451 kts | 302° |